Ravenna, Michigan
Current Conditions -  °F | °C
As of 2:55 AM on Wednesday 26 Nov 2014 (Local Time) from KMKG Reporting Station
Overcast Overcast  
Wind Chill: 23°   Ceiling: 2600
Heat Index: 31°   Visibility: 10mi
Dew Point: 21°   Wind: 8mph
Humidity: 67%   Direction: 240°WSW
Pressure: 30.18"   Gusts: NA
Location:  43.19°N, 85.94°W
Report Text: KMKG 260755Z AUTO 24007KT 10SM OVC026 M01/M06 A3018 RMK AO2 SLP226 T10061061
Loading
Personal Weather Stations






























Interactive Weather Map New forecast layout! Learn more

10-Day Weather Forecast

Advertisements
Track Severe Weather on mobile